地図

経路データ

SID SEASON NUMBER BASIN SUBBASIN NAME ISO_TIME NATURE LAT LON WMO_WIND WMO_PRES WMO_AGENCY TRACK_TYPE DIST2LAND LANDFALL IFLAG USA_AGENCY USA_ATCF_ID USA_LAT USA_LON USA_RECORD USA_STATUS USA_WIND USA_PRES USA_SSHS USA_R34_NE USA_R34_SE USA_R34_SW USA_R34_NW USA_R50_NE USA_R50_SE USA_R50_SW USA_R50_NW USA_R64_NE USA_R64_SE USA_R64_SW USA_R64_NW USA_POCI USA_ROCI USA_RMW USA_EYE TOKYO_LAT TOKYO_LON TOKYO_GRADE TOKYO_WIND TOKYO_PRES TOKYO_R50_DIR TOKYO_R50_LONG TOKYO_R50_SHORT TOKYO_R30_DIR TOKYO_R30_LONG TOKYO_R30_SHORT TOKYO_LAND CMA_LAT CMA_LON CMA_CAT CMA_WIND CMA_PRES HKO_LAT HKO_LON HKO_CAT HKO_WIND HKO_PRES NEWDELHI_LAT NEWDELHI_LON NEWDELHI_GRADE NEWDELHI_WIND NEWDELHI_PRES NEWDELHI_CI NEWDELHI_DP NEWDELHI_POCI REUNION_LAT REUNION_LON REUNION_TYPE REUNION_WIND REUNION_PRES REUNION_TNUM REUNION_CI REUNION_RMW REUNION_R34_NE REUNION_R34_SE REUNION_R34_SW REUNION_R34_NW REUNION_R50_NE REUNION_R50_SE REUNION_R50_SW REUNION_R50_NW REUNION_R64_NE REUNION_R64_SE REUNION_R64_SW REUNION_R64_NW BOM_LAT BOM_LON BOM_TYPE BOM_WIND BOM_PRES BOM_TNUM BOM_CI BOM_RMW BOM_R34_NE BOM_R34_SE BOM_R34_SW BOM_R34_NW BOM_R50_NE BOM_R50_SE BOM_R50_SW BOM_R50_NW BOM_R64_NE BOM_R64_SE BOM_R64_SW BOM_R64_NW BOM_ROCI BOM_POCI BOM_EYE BOM_POS_METHOD BOM_PRES_METHOD NADI_LAT NADI_LON NADI_CAT NADI_WIND NADI_PRES WELLINGTON_LAT WELLINGTON_LON WELLINGTON_WIND WELLINGTON_PRES DS824_LAT DS824_LON DS824_STAGE DS824_WIND DS824_PRES TD9636_LAT TD9636_LON TD9636_STAGE TD9636_WIND TD9636_PRES TD9635_LAT TD9635_LON TD9635_WIND TD9635_PRES TD9635_ROCI NEUMANN_LAT NEUMANN_LON NEUMANN_CLASS NEUMANN_WIND NEUMANN_PRES MLC_LAT MLC_LON MLC_CLASS MLC_WIND MLC_PRES USA_GUST BOM_GUST BOM_GUST_PER REUNION_GUST REUNION_GUST_PER USA_SEAHGT USA_SEARAD_NE USA_SEARAD_SE USA_SEARAD_SW USA_SEARAD_NW STORM_SPEED STORM_DIR
1977129N08084 1977 38 NI BB NOT_NAMED 1977-05-09 00:00:00 TS 7.60000 84.4000 main 284 284 O________OO___ jtwc_io IO011977 7.60000 84.4000 -1 7.60000 84.4000 TC 7.60000 84.4000 1 10 61
1977129N08084 1977 38 NI BB NOT_NAMED 1977-05-09 03:00:00 TS 7.83631 84.8361 main 331 331 P________PP___ IO011977 7.81767 84.8425 -1 7.81767 84.8425 TC 7.87360 84.8231 1 9 56
1977129N08084 1977 38 NI BB NOT_NAMED 1977-05-09 06:00:00 TS 8.12583 85.1891 main 379 379 O________OP___ jtwc_io IO011977 8.10000 85.2000 -1 8.10000 85.2000 TC 8.17748 85.1673 1 9 38
1977129N08084 1977 38 NI BB NOT_NAMED 1977-05-09 09:00:00 TS 8.51242 85.3741 main 409 409 P________PP___ IO011977 8.49734 85.3847 -1 8.49734 85.3847 TC 8.54259 85.3529 1 9 7
1977129N08084 1977 38 NI BB NOT_NAMED 1977-05-09 12:00:00 TS 9.00000 85.3000 main 416 399 O________OO___ jtwc_io IO011977 9.00000 85.3000 -1 9.00000 85.3000 TC 9.00000 85.3000 1 12 336
1977129N08084 1977 38 NI BB NOT_NAMED 1977-05-09 15:00:00 TS 9.56917 84.8915 main 404 380 P________PP___ IO011977 9.57027 84.8529 -1 9.57027 84.8529 TC 9.56696 84.9686 1 15 322
1977129N08084 1977 38 NI BB NOT_NAMED 1977-05-09 18:00:00 TS 10.2021 84.3605 main 386 373 O________OP___ jtwc_io IO011977 10.2000 84.3000 -1 10.2000 84.3000 TC 10.2062 84.4815 1 16 324
1977129N08084 1977 38 NI BB NOT_NAMED 1977-05-09 21:00:00 TS 10.8606 83.9213 main 384 379 P________PP___ IO011977 10.8574 83.8803 -1 10.8574 83.8803 TC 10.8671 84.0032 1 15 333
1977129N08084 1977 38 NI BB NOT_NAMED 1977-05-10 00:00:00 TS 11.5000 83.7000 main 397 388 O________OO___ jtwc_io IO011977 11.5000 83.7000 -1 11.5000 83.7000 TC 11.5000 83.7000 1 12 358
1977129N08084 1977 38 NI BB NOT_NAMED 1977-05-10 03:00:00 TS 12.0734 83.8720 main 404 403 P________PP___ IO011977 12.0800 83.9095 -1 12.0800 83.9095 TC 12.0601 83.7970 1 12 25
1977129N08084 1977 38 NI BB NOT_NAMED 1977-05-10 06:00:00 TS 12.5942 84.2293 main 430 430 O________OP___ jtwc_io IO011977 12.6000 84.3000 -1 12.6000 84.3000 TC 12.5825 84.0878 1 12 34
1977129N08084 1977 38 NI BB NOT_NAMED 1977-05-10 09:00:00 TS 13.0745 84.5617 main 463 445 P________PP___ IO011977 13.0800 84.6001 -1 13.0800 84.6001 TC 13.0635 84.4849 1 11 36
1977129N08084 1977 38 NI BB NOT_NAMED 1977-05-10 12:00:00 TS 13.5000 84.9000 main 445 434 O________OO___ jtwc_io IO011977 13.5000 84.9000 -1 13.5000 84.9000 TC 13.5000 84.9000 1 10 38
1977129N08084 1977 38 NI BB NOT_NAMED 1977-05-10 15:00:00 TS 13.8635 85.1990 main 433 433 P________PP___ IO011977 13.8650 85.2001 -1 13.8650 85.2001 TC 13.8605 85.1969 1 9 40
1977129N08084 1977 38 NI BB NOT_NAMED 1977-05-10 18:00:00 TS 14.1949 85.4979 main 435 430 O________OP___ jtwc_io IO011977 14.2000 85.5000 -1 14.2000 85.5000 TC 14.1848 85.4938 1 9 41
1977129N08084 1977 38 NI BB NOT_NAMED 1977-05-10 21:00:00 TS 14.5189 85.7981 main 442 432 P________PP___ IO011977 14.5200 85.8002 -1 14.5200 85.8002 TC 14.5167 85.7938 1 9 40
1977129N08084 1977 38 NI BB NOT_NAMED 1977-05-11 00:00:00 TS 14.9000 86.1000 main 432 406 O________OO___ jtwc_io IO011977 14.9000 86.1000 -1 14.9000 86.1000 TC 14.9000 86.1000 2 11 33
1977129N08084 1977 38 NI BB NOT_NAMED 1977-05-11 03:00:00 TS 15.4175 86.4023 main 406 377 P________PP___ IO011977 15.4199 86.3926 -1 15.4199 86.3926 TC 15.4128 86.4216 2 13 29
1977129N08084 1977 38 NI BB NOT_NAMED 1977-05-11 06:00:00 TS 15.9925 86.7165 main 377 361 O________OP___ jtwc_io IO011977 16.0000 86.7000 -1 16.0000 86.7000 TC 15.9775 86.7496 2 13 29
1977129N08084 1977 38 NI BB NOT_NAMED 1977-05-11 09:00:00 TS 16.5611 87.0593 main 361 341 P________PP___ IO011977 16.5650 87.0500 -1 16.5650 87.0500 TC 16.5534 87.0779 2 13 31
1977129N08084 1977 38 NI BB NOT_NAMED 1977-05-11 12:00:00 TS 17.1000 87.4000 main 341 306 O________OO___ jtwc_io IO011977 17.1000 87.4000 -1 17.1000 87.4000 TC 17.1000 87.4000 2 12 32
1977129N08084 1977 38 NI BB NOT_NAMED 1977-05-11 15:00:00 TS 17.5617 87.7079 main 301 279 P________PP___ IO011977 17.5724 87.7077 -1 17.5724 87.7077 TC 17.5404 87.7082 2 11 33
1977129N08084 1977 38 NI BB NOT_NAMED 1977-05-11 18:00:00 TS 17.9832 88.0030 main 279 268 O________OP___ jtwc_io IO011977 18.0000 88.0000 XX 55 -5 18.0000 88.0000 TC 55 17.9497 88.0089 2 10 35
1977129N08084 1977 38 NI BB NOT_NAMED 1977-05-11 21:00:00 TS 18.3764 88.3019 main 268 260 P________PP___ IO011977 18.3850 88.3003 XX 55 -5 18.3850 88.3003 TC 55 18.3592 88.3051 2 10 35
1977129N08084 1977 38 NI BB NOT_NAMED 1977-05-12 00:00:00 TS 18.8000 88.6000 main 260 251 O________OO___ jtwc_io IO011977 18.8000 88.6000 XX 55 -5 18.8000 88.6000 TC 55 18.8000 88.6000 4 11 31
1977129N08084 1977 38 NI BB NOT_NAMED 1977-05-12 03:00:00 TS 19.3392 88.9066 main 252 190 P________PP___ IO011977 19.3275 88.9001 XX 57 -5 19.3275 88.9001 TC 57 19.3628 88.9195 4 13 27
1977129N08084 1977 38 NI BB NOT_NAMED 1977-05-12 06:00:00 TS 19.9175 89.2121 main 190 129 O________OP___ jtwc_io IO011977 19.9000 89.2000 XX 60 -5 19.9000 89.2000 TC 60 19.9526 89.2363 4 13 26
1977129N08084 1977 38 NI BB NOT_NAMED 1977-05-12 09:00:00 TS 20.5020 89.5216 main 129 88 P________PP___ IO011977 20.4950 89.5148 XX 55 -5 20.4950 89.5148 TC 55 20.5160 89.5351 4 12 27
1977129N08084 1977 38 NI BB NOT_NAMED 1977-05-12 12:00:00 TS 21.0000 89.8000 main 88 56 O________OO___ jtwc_io IO011977 21.0000 89.8000 XX 50 -5 21.0000 89.8000 TC 50 21.0000 89.8000 4 9 31
1977129N08084 1977 38 NI BB NOT_NAMED 1977-05-12 15:00:00 TS 21.2951 90.0274 main 56 33 P________PP___ IO011977 21.2949 90.0228 XX 45 -5 21.2949 90.0228 TC 45 21.2954 90.0364 4 6 37
1977129N08084 1977 38 NI BB NOT_NAMED 1977-05-12 18:00:00 TS 21.5049 90.2113 main 33 15 O________OP___ jtwc_io IO011977 21.5000 90.2000 XX 40 -5 21.5000 90.2000 TC 40 21.5148 90.2337 4 5 37
1977129N08084 1977 38 NI BB NOT_NAMED 1977-05-12 21:00:00 TS 21.7222 90.3781 main 23 10 P________PP___ IO011977 21.7200 90.3726 XX 37 -5 21.7200 90.3726 TC 37 21.7267 90.3891 4 6 29
1977129N08084 1977 38 NI BB NOT_NAMED 1977-05-13 00:00:00 TS 22.0000 90.5000 main 10 0 O________OO___ jtwc_io IO011977 22.0000 90.5000 XX 35 -5 22.0000 90.5000 TC 35 22.0000 90.5000 2 7 15
1977129N08084 1977 38 NI BB NOT_NAMED 1977-05-13 03:00:00 TS 22.3988 90.5705 main 10 0 P________PP___ IO011977 22.4050 90.5725 XX 32 -5 22.4050 90.5725 TC 32 22.3863 90.5663 2 9 6
1977129N08084 1977 38 NI BB NOT_NAMED 1977-05-13 06:00:00 TS 22.8900 90.5991 main 0 0 O________OP___ jtwc_io IO011977 22.9000 90.6000 XX 30 -5 22.9000 90.6000 TC 30 22.8701 90.5973 2 10 2
1977129N08084 1977 38 NI BB NOT_NAMED 1977-05-13 09:00:00 TS 23.4330 90.6049 main 0 0 P________PP___ IO011977 23.4400 90.6050 XX -5 23.4400 90.6050 TC 23.4189 90.6046 2 11 0
1977129N08084 1977 38 NI BB NOT_NAMED 1977-05-13 12:00:00 TS 24.0000 90.6000 main 0 O________OO___ jtwc_io IO011977 24.0000 90.6000 -1 24.0000 90.6000 TC 24.0000 90.6000 1 11 0

IBTrACS Databaseについて

本データベースは、米国NOAAが公開する1842年以降の世界の熱帯低気圧のベストトラックデータアーカイブInternational Best Track Archive for Climate Stewardship (IBTrACS)を、ウェブで閲覧しやすい形式に変換したものです。

最終更新日:2021-11-26